sensor_id;sensor_type;location;lat;lon;timestamp;pressure;altitude;pressure_sealevel;temperature;humidity
55550;BME280;41397;49.972;18.944;2022-08-27T00:02:54;101382.80;;;22.15;69.43
55550;BME280;41397;49.972;18.944;2022-08-27T00:04:16;101385.59;;;22.15;69.70
55550;BME280;41397;49.972;18.944;2022-08-27T00:08:09;101378.84;;;22.10;69.70
55550;BME280;41397;49.972;18.944;2022-08-27T00:13:24;101378.02;;;22.01;69.98
55550;BME280;41397;49.972;18.944;2022-08-27T00:18:39;101377.84;;;22.03;69.91
55550;BME280;41397;49.972;18.944;2022-08-27T00:23:53;101393.80;;;22.09;69.85
55550;BME280;41397;49.972;18.944;2022-08-27T00:29:07;101389.95;;;22.18;69.60
55550;BME280;41397;49.972;18.944;2022-08-27T00:34:22;101390.80;;;22.19;69.70
55550;BME280;41397;49.972;18.944;2022-08-27T00:34:36;101399.17;;;22.19;70.01
55550;BME280;41397;49.972;18.944;2022-08-27T00:39:36;101402.44;;;22.22;69.71
55550;BME280;41397;49.972;18.944;2022-08-27T00:44:50;101399.38;;;22.09;70.11
55550;BME280;41397;49.972;18.944;2022-08-27T00:50:10;101386.06;;;21.96;70.44
55550;BME280;41397;49.972;18.944;2022-08-27T00:55:29;101384.61;;;21.85;70.83
55550;BME280;41397;49.972;18.944;2022-08-27T01:00:48;101376.19;;;21.70;70.83
55550;BME280;41397;49.972;18.944;2022-08-27T01:05:00;101379.23;;;21.61;70.83
55550;BME280;41397;49.972;18.944;2022-08-27T01:06:04;101393.14;;;21.61;70.55
55550;BME280;41397;49.972;18.944;2022-08-27T01:11:23;101382.29;;;21.66;70.45
55550;BME280;41397;49.972;18.944;2022-08-27T01:16:40;101383.46;;;21.48;70.95
55550;BME280;41397;49.972;18.944;2022-08-27T01:27:26;101392.88;;;21.70;69.41
55550;BME280;41397;49.972;18.944;2022-08-27T01:32:40;101388.87;;;21.73;69.63
55550;BME280;41397;49.972;18.944;2022-08-27T01:35:17;101393.03;;;21.77;69.13
55550;BME280;41397;49.972;18.944;2022-08-27T01:37:54;101388.98;;;21.80;69.29
55550;BME280;41397;49.972;18.944;2022-08-27T01:43:08;101381.95;;;21.69;69.17
55550;BME280;41397;49.972;18.944;2022-08-27T01:48:22;101384.33;;;21.49;69.97
55550;BME280;41397;49.972;18.944;2022-08-27T01:53:35;101389.77;;;21.42;69.95
55550;BME280;41397;49.972;18.944;2022-08-27T01:58:51;101393.59;;;21.33;70.14
55550;BME280;41397;49.972;18.944;2022-08-27T02:04:08;101399.85;;;21.35;70.35
55550;BME280;41397;49.972;18.944;2022-08-27T02:05:32;101393.09;;;21.38;70.14
55550;BME280;41397;49.972;18.944;2022-08-27T02:09:25;101401.33;;;21.23;70.74
55550;BME280;41397;49.972;18.944;2022-08-27T02:14:42;101405.29;;;21.28;70.59
55550;BME280;41397;49.972;18.944;2022-08-27T02:19:56;101389.25;;;21.31;70.17
55550;BME280;41397;49.972;18.944;2022-08-27T02:25:11;101391.50;;;21.35;70.21
55550;BME280;41397;49.972;18.944;2022-08-27T02:30:29;101392.23;;;21.29;69.91
55550;BME280;41397;49.972;18.944;2022-08-27T02:35:44;101404.96;;;21.23;70.52
55550;BME280;41397;49.972;18.944;2022-08-27T02:35:58;101409.67;;;21.23;70.56
55550;BME280;41397;49.972;18.944;2022-08-27T02:40:58;101397.11;;;21.27;69.65
55550;BME280;41397;49.972;18.944;2022-08-27T02:46:12;101397.15;;;21.19;70.11
55550;BME280;41397;49.972;18.944;2022-08-27T02:51:25;101380.13;;;21.14;69.96
55550;BME280;41397;49.972;18.944;2022-08-27T02:56:39;101378.73;;;21.18;69.75
55550;BME280;41397;49.972;18.944;2022-08-27T03:01:53;101379.77;;;21.17;69.55
55550;BME280;41397;49.972;18.944;2022-08-27T03:06:12;101379.77;;;21.17;69.41
55550;BME280;41397;49.972;18.944;2022-08-27T03:07:07;101380.83;;;21.16;69.18
55550;BME280;41397;49.972;18.944;2022-08-27T03:12:20;101387.16;;;21.01;69.23
55550;BME280;41397;49.972;18.944;2022-08-27T03:17:34;101394.64;;;21.01;69.57
55550;BME280;41397;49.972;18.944;2022-08-27T03:23:00;101392.88;;;21.00;69.48
55550;BME280;41397;49.972;18.944;2022-08-27T03:28:14;101395.30;;;21.03;70.18
55550;BME280;41397;49.972;18.944;2022-08-27T03:33:36;101385.13;;;20.87;70.52
55550;BME280;41397;49.972;18.944;2022-08-27T03:36:27;101378.15;;;20.91;69.89
55550;BME280;41397;49.972;18.944;2022-08-27T03:38:52;101377.98;;;20.93;70.36
55550;BME280;41397;49.972;18.944;2022-08-27T03:44:09;101374.01;;;20.87;70.27
55550;BME280;41397;49.972;18.944;2022-08-27T03:49:26;101375.27;;;20.76;70.78
55550;BME280;41397;49.972;18.944;2022-08-27T03:54:44;101386.88;;;20.80;70.73
55550;BME280;41397;49.972;18.944;2022-08-27T04:00:00;101389.35;;;20.67;70.78
55550;BME280;41397;49.972;18.944;2022-08-27T04:05:17;101391.27;;;20.66;71.08
55550;BME280;41397;49.972;18.944;2022-08-27T04:06:41;101385.71;;;20.66;70.86
55550;BME280;41397;49.972;18.944;2022-08-27T04:10:38;101392.84;;;20.52;71.40
55550;BME280;41397;49.972;18.944;2022-08-27T04:15:53;101405.52;;;20.63;71.96
55550;BME280;41397;49.972;18.944;2022-08-27T04:21:11;101414.13;;;20.93;71.47
55550;BME280;41397;49.972;18.944;2022-08-27T04:26:27;101393.96;;;21.30;70.28
55550;BME280;41397;49.972;18.944;2022-08-27T04:31:43;101399.26;;;21.79;69.73
55550;BME280;41397;49.972;18.944;2022-08-27T04:36:56;101407.63;;;22.25;68.07
55550;BME280;41397;49.972;18.944;2022-08-27T04:37:10;101409.39;;;22.26;68.22
55550;BME280;41397;49.972;18.944;2022-08-27T04:42:24;101417.73;;;22.79;67.27
55550;BME280;41397;49.972;18.944;2022-08-27T04:47:38;101417.24;;;23.35;65.50
55550;BME280;41397;49.972;18.944;2022-08-27T04:52:52;101425.56;;;23.79;63.85
55550;BME280;41397;49.972;18.944;2022-08-27T04:58:05;101415.89;;;24.25;61.87
55550;BME280;41397;49.972;18.944;2022-08-27T05:03:22;101428.22;;;24.80;60.74
55550;BME280;41397;49.972;18.944;2022-08-27T05:07:10;101435.09;;;25.12;59.29
55550;BME280;41397;49.972;18.944;2022-08-27T05:08:36;101435.42;;;25.24;59.35
55550;BME280;41397;49.972;18.944;2022-08-27T05:13:52;101445.44;;;25.53;58.75
55550;BME280;41397;49.972;18.944;2022-08-27T05:19:08;101438.30;;;25.99;57.54
55550;BME280;41397;49.972;18.944;2022-08-27T05:24:22;101425.19;;;26.39;56.83
55550;BME280;41397;49.972;18.944;2022-08-27T05:29:37;101427.82;;;26.61;55.69
55550;BME280;41397;49.972;18.944;2022-08-27T05:35:06;101427.59;;;26.69;56.28
55550;BME280;41397;49.972;18.944;2022-08-27T05:37:24;101428.21;;;26.91;56.78
55550;BME280;41397;49.972;18.944;2022-08-27T05:40:16;101429.66;;;27.13;55.63
55550;BME280;41397;49.972;18.944;2022-08-27T05:45:30;101425.30;;;27.31;55.65
55550;BME280;41397;49.972;18.944;2022-08-27T05:50:44;101424.95;;;27.65;55.83
55550;BME280;41397;49.972;18.944;2022-08-27T05:55:58;101432.23;;;27.86;54.98
55550;BME280;41397;49.972;18.944;2022-08-27T06:01:21;101435.36;;;28.03;54.21
55550;BME280;41397;49.972;18.944;2022-08-27T06:06:36;101423.56;;;28.20;54.08
55550;BME280;41397;49.972;18.944;2022-08-27T06:07:39;101422.46;;;28.21;54.35
55550;BME280;41397;49.972;18.944;2022-08-27T06:12:00;101415.66;;;28.35;54.73
55550;BME280;41397;49.972;18.944;2022-08-27T06:17:14;101424.06;;;28.67;54.01
55550;BME280;41397;49.972;18.944;2022-08-27T06:22:28;101425.55;;;28.69;54.15
55550;BME280;41397;49.972;18.944;2022-08-27T06:27:42;101447.56;;;28.79;54.50
55550;BME280;41397;49.972;18.944;2022-08-27T06:32:56;101439.54;;;29.01;54.49
55550;BME280;41397;49.972;18.944;2022-08-27T06:37:52;101435.45;;;29.22;54.42
55550;BME280;41397;49.972;18.944;2022-08-27T06:38:10;101442.85;;;29.16;54.34
55550;BME280;41397;49.972;18.944;2022-08-27T06:43:27;101448.66;;;29.58;53.76
55550;BME280;41397;49.972;18.944;2022-08-27T06:48:44;101437.51;;;29.82;54.46
55550;BME280;41397;49.972;18.944;2022-08-27T06:54:07;101446.84;;;30.13;53.67
55550;BME280;41397;49.972;18.944;2022-08-27T06:59:21;101440.80;;;30.39;53.17
55550;BME280;41397;49.972;18.944;2022-08-27T07:04:35;101466.62;;;30.66;54.01
55550;BME280;41397;49.972;18.944;2022-08-27T07:08:07;101456.99;;;30.86;53.45
55550;BME280;41397;49.972;18.944;2022-08-27T07:09:52;101461.77;;;30.97;53.27
55550;BME280;41397;49.972;18.944;2022-08-27T07:15:06;101480.19;;;31.11;52.68
55550;BME280;41397;49.972;18.944;2022-08-27T07:20:20;101469.73;;;31.24;52.84
55550;BME280;41397;49.972;18.944;2022-08-27T07:25:34;101482.66;;;31.43;52.49
55550;BME280;41397;49.972;18.944;2022-08-27T07:30:48;101491.23;;;31.60;52.24
55550;BME280;41397;49.972;18.944;2022-08-27T07:36:06;101488.87;;;31.69;51.78
55550;BME280;41397;49.972;18.944;2022-08-27T07:38:21;101480.99;;;31.71;51.26
55550;BME280;41397;49.972;18.944;2022-08-27T07:41:20;101483.66;;;31.77;51.45
55550;BME280;41397;49.972;18.944;2022-08-27T07:46:34;101489.32;;;31.77;51.79
55550;BME280;41397;49.972;18.944;2022-08-27T07:51:48;101498.28;;;31.98;51.74
55550;BME280;41397;49.972;18.944;2022-08-27T07:57:03;101495.44;;;32.26;51.79
55550;BME280;41397;49.972;18.944;2022-08-27T08:02:17;101495.58;;;32.48;50.73
55550;BME280;41397;49.972;18.944;2022-08-27T08:07:32;101508.04;;;32.47;49.28
55550;BME280;41397;49.972;18.944;2022-08-27T08:08:36;101511.34;;;32.44;49.51
55550;BME280;41397;49.972;18.944;2022-08-27T08:12:46;101510.13;;;32.40;49.95
55550;BME280;41397;49.972;18.944;2022-08-27T08:18:01;101513.88;;;32.29;50.84
55550;BME280;41397;49.972;18.944;2022-08-27T08:23:14;101516.11;;;32.27;51.25
55550;BME280;41397;49.972;18.944;2022-08-27T08:28:28;101517.83;;;32.57;50.35
55550;BME280;41397;49.972;18.944;2022-08-27T08:33:42;101521.41;;;32.52;49.49
55550;BME280;41397;49.972;18.944;2022-08-27T08:38:53;101535.62;;;32.69;50.30
55550;BME280;41397;49.972;18.944;2022-08-27T08:39:07;101528.49;;;32.66;50.04
55550;BME280;41397;49.972;18.944;2022-08-27T08:49:53;101543.80;;;32.82;48.36
55550;BME280;41397;49.972;18.944;2022-08-27T09:00:36;101546.96;;;32.69;49.10
55550;BME280;41397;49.972;18.944;2022-08-27T09:05:57;101547.39;;;32.94;47.78
55550;BME280;41397;49.972;18.944;2022-08-27T09:16:42;101544.66;;;32.83;48.37
55550;BME280;41397;49.972;18.944;2022-08-27T09:27:22;101553.82;;;32.90;48.69
55550;BME280;41397;49.972;18.944;2022-08-27T09:32:37;101548.37;;;33.00;48.68
55550;BME280;41397;49.972;18.944;2022-08-27T09:37:54;101548.96;;;33.19;48.29
55550;BME280;41397;49.972;18.944;2022-08-27T09:39:39;101555.32;;;33.26;48.73
55550;BME280;41397;49.972;18.944;2022-08-27T09:43:20;101545.49;;;33.34;48.40
55550;BME280;41397;49.972;18.944;2022-08-27T09:48:36;101546.63;;;33.33;47.50
55550;BME280;41397;49.972;18.944;2022-08-27T09:53:57;101541.41;;;33.08;48.27
55550;BME280;41397;49.972;18.944;2022-08-27T10:04:40;101539.39;;;32.46;48.94
55550;BME280;41397;49.972;18.944;2022-08-27T10:10:34;101556.35;;;32.29;49.34
55550;BME280;41397;49.972;18.944;2022-08-27T10:21:26;101544.40;;;31.87;49.66
55550;BME280;41397;49.972;18.944;2022-08-27T10:26:52;101526.72;;;31.79;49.49
55550;BME280;41397;49.972;18.944;2022-08-27T10:32:25;101533.64;;;31.48;48.96
55550;BME280;41397;49.972;18.944;2022-08-27T10:38:01;101518.51;;;31.66;49.63
55550;BME280;41397;49.972;18.944;2022-08-27T10:40:28;101517.06;;;31.52;48.70
55550;BME280;41397;49.972;18.944;2022-08-27T10:48:39;101507.21;;;31.31;49.04
55550;BME280;41397;49.972;18.944;2022-08-27T11:02:43;101487.43;;;31.54;48.22
55550;BME280;41397;49.972;18.944;2022-08-27T11:18:59;101496.41;;;31.39;45.57
55550;BME280;41397;49.972;18.944;2022-08-27T11:24:22;101503.54;;;31.42;47.12
55550;BME280;41397;49.972;18.944;2022-08-27T11:27:35;101494.55;;;31.33;46.98
55550;BME280;41397;49.972;18.944;2022-08-27T11:29:52;101499.73;;;31.25;47.00
55550;BME280;41397;49.972;18.944;2022-08-27T11:35:17;101491.35;;;31.18;48.30
55550;BME280;41397;49.972;18.944;2022-08-27T11:46:04;101483.02;;;31.00;47.40
55550;BME280;41397;49.972;18.944;2022-08-27T11:56:46;101478.34;;;30.82;47.92
55550;BME280;41397;49.972;18.944;2022-08-27T12:02:12;101481.40;;;30.80;48.10
55550;BME280;41397;49.972;18.944;2022-08-27T12:07:33;101473.65;;;30.75;49.33
55550;BME280;41397;49.972;18.944;2022-08-27T12:23:54;101467.66;;;30.84;49.23
55550;BME280;41397;49.972;18.944;2022-08-27T12:28:22;101457.08;;;30.91;48.93
55550;BME280;41397;49.972;18.944;2022-08-27T12:35:30;101455.14;;;30.91;49.23
55550;BME280;41397;49.972;18.944;2022-08-27T12:40:09;101467.03;;;30.93;50.34
55550;BME280;41397;49.972;18.944;2022-08-27T12:45:25;101457.21;;;30.96;49.95
55550;BME280;41397;49.972;18.944;2022-08-27T12:50:39;101459.08;;;31.02;50.63
55550;BME280;41397;49.972;18.944;2022-08-27T13:01:31;101439.55;;;30.89;50.22
55550;BME280;41397;49.972;18.944;2022-08-27T13:06:47;101435.38;;;30.91;50.96
55550;BME280;41397;49.972;18.944;2022-08-27T13:12:05;101423.68;;;30.88;50.87
55550;BME280;41397;49.972;18.944;2022-08-27T13:17:20;101441.98;;;30.85;51.32
55550;BME280;41397;49.972;18.944;2022-08-27T13:22:38;101444.42;;;30.70;51.90
55550;BME280;41397;49.972;18.944;2022-08-27T13:28:13;101447.61;;;30.62;52.34
55550;BME280;41397;49.972;18.944;2022-08-27T13:29:04;101442.18;;;30.60;52.07
55550;BME280;41397;49.972;18.944;2022-08-27T13:33:32;101440.34;;;30.54;52.10
55550;BME280;41397;49.972;18.944;2022-08-27T13:38:43;101435.05;;;30.46;52.60
55550;BME280;41397;49.972;18.944;2022-08-27T13:49:25;101431.33;;;30.34;53.66
55550;BME280;41397;49.972;18.944;2022-08-27T13:54:46;101438.32;;;30.31;52.42
55550;BME280;41397;49.972;18.944;2022-08-27T13:59:25;101436.29;;;30.20;52.85
55550;BME280;41397;49.972;18.944;2022-08-27T14:00:09;101436.47;;;30.25;53.16
55550;BME280;41397;49.972;18.944;2022-08-27T14:05:29;101434.91;;;30.29;52.95
55550;BME280;41397;49.972;18.944;2022-08-27T14:21:39;101434.76;;;30.24;53.72
55550;BME280;41397;49.972;18.944;2022-08-27T14:27:03;101439.07;;;30.26;53.95
55550;BME280;41397;49.972;18.944;2022-08-27T14:29:42;101447.36;;;30.21;53.52
55550;BME280;41397;49.972;18.944;2022-08-27T14:32:18;101444.40;;;30.16;53.41
55550;BME280;41397;49.972;18.944;2022-08-27T14:37:33;101452.50;;;30.13;53.78
55550;BME280;41397;49.972;18.944;2022-08-27T14:42:47;101449.23;;;29.97;54.60
55550;BME280;41397;49.972;18.944;2022-08-27T14:48:01;101452.80;;;29.56;55.98
55550;BME280;41397;49.972;18.944;2022-08-27T14:53:17;101449.41;;;29.84;56.08
55550;BME280;41397;49.972;18.944;2022-08-27T14:58:32;101445.27;;;29.86;56.22
55550;BME280;41397;49.972;18.944;2022-08-27T14:59:57;101446.52;;;29.91;55.95
55550;BME280;41397;49.972;18.944;2022-08-27T15:03:48;101445.93;;;30.00;55.82
55550;BME280;41397;49.972;18.944;2022-08-27T15:09:02;101443.02;;;30.07;55.99
55550;BME280;41397;49.972;18.944;2022-08-27T15:19:41;101436.76;;;30.05;56.38
55550;BME280;41397;49.972;18.944;2022-08-27T15:24:56;101432.23;;;30.04;56.16
55550;BME280;41397;49.972;18.944;2022-08-27T15:30:12;101437.24;;;30.02;55.82
55550;BME280;41397;49.972;18.944;2022-08-27T15:30:27;101435.76;;;29.99;55.95
55550;BME280;41397;49.972;18.944;2022-08-27T15:35:27;101428.15;;;30.00;55.89
55550;BME280;41397;49.972;18.944;2022-08-27T15:40:41;101435.51;;;30.01;56.08
55550;BME280;41397;49.972;18.944;2022-08-27T15:45:55;101445.93;;;30.00;55.09
55550;BME280;41397;49.972;18.944;2022-08-27T15:51:10;101441.62;;;29.98;55.77
55550;BME280;41397;49.972;18.944;2022-08-27T15:56:26;101438.44;;;29.94;55.72
55550;BME280;41397;49.972;18.944;2022-08-27T16:00:42;101423.07;;;29.90;55.79
55550;BME280;41397;49.972;18.944;2022-08-27T16:01:40;101435.47;;;29.89;55.68
55550;BME280;41397;49.972;18.944;2022-08-27T16:06:55;101429.67;;;29.84;55.98
55550;BME280;41397;49.972;18.944;2022-08-27T16:12:08;101431.02;;;29.81;56.15
55550;BME280;41397;49.972;18.944;2022-08-27T16:17:24;101426.71;;;29.79;55.84
55550;BME280;41397;49.972;18.944;2022-08-27T16:22:40;101437.62;;;29.75;55.87
55550;BME280;41397;49.972;18.944;2022-08-27T16:27:57;101444.85;;;29.71;56.35
55550;BME280;41397;49.972;18.944;2022-08-27T16:30:58;101442.95;;;29.65;56.26
55550;BME280;41397;49.972;18.944;2022-08-27T16:33:13;101442.31;;;29.63;56.34
55550;BME280;41397;49.972;18.944;2022-08-27T16:38:27;101431.74;;;29.58;56.93
55550;BME280;41397;49.972;18.944;2022-08-27T16:43:41;101443.98;;;29.52;57.40
55550;BME280;41397;49.972;18.944;2022-08-27T16:48:55;101434.73;;;29.45;57.71
55550;BME280;41397;49.972;18.944;2022-08-27T16:54:21;101439.10;;;29.41;58.25
55550;BME280;41397;49.972;18.944;2022-08-27T16:59:34;101442.01;;;29.34;58.27
55550;BME280;41397;49.972;18.944;2022-08-27T17:01:14;101445.05;;;29.33;58.67
55550;BME280;41397;49.972;18.944;2022-08-27T17:04:48;101441.63;;;29.31;58.88
55550;BME280;41397;49.972;18.944;2022-08-27T17:10:03;101444.76;;;29.23;59.33
55550;BME280;41397;49.972;18.944;2022-08-27T17:15:17;101443.96;;;29.15;59.70
55550;BME280;41397;49.972;18.944;2022-08-27T17:20:31;101451.60;;;29.08;59.98
55550;BME280;41397;49.972;18.944;2022-08-27T17:25:50;101452.13;;;28.98;60.27
55550;BME280;41397;49.972;18.944;2022-08-27T17:31:04;101455.88;;;28.92;60.91
55550;BME280;41397;49.972;18.944;2022-08-27T17:31:32;101456.10;;;28.91;61.31
55550;BME280;41397;49.972;18.944;2022-08-27T17:36:19;101457.51;;;28.82;61.55
55550;BME280;41397;49.972;18.944;2022-08-27T17:41:35;101458.65;;;28.74;61.63
55550;BME280;41397;49.972;18.944;2022-08-27T17:46:51;101461.76;;;28.66;61.93
55550;BME280;41397;49.972;18.944;2022-08-27T17:52:12;101468.31;;;28.60;62.38
55550;BME280;41397;49.972;18.944;2022-08-27T17:57:30;101459.90;;;28.53;62.27
55550;BME280;41397;49.972;18.944;2022-08-27T18:01:48;101460.83;;;28.47;63.13
55550;BME280;41397;49.972;18.944;2022-08-27T18:02:49;101468.63;;;28.45;63.44
55550;BME280;41397;49.972;18.944;2022-08-27T18:08:03;101466.92;;;28.37;63.85
55550;BME280;41397;49.972;18.944;2022-08-27T18:13:17;101466.59;;;28.27;64.54
55550;BME280;41397;49.972;18.944;2022-08-27T18:18:32;101473.15;;;28.14;64.72
55550;BME280;41397;49.972;18.944;2022-08-27T18:23:47;101478.64;;;28.02;65.75
55550;BME280;41397;49.972;18.944;2022-08-27T18:29:01;101487.55;;;27.93;65.74
55550;BME280;41397;49.972;18.944;2022-08-27T18:32:02;101483.48;;;27.88;66.07
55550;BME280;41397;49.972;18.944;2022-08-27T18:34:15;101483.90;;;27.85;66.78
55550;BME280;41397;49.972;18.944;2022-08-27T18:39:28;101490.39;;;27.79;66.92
55550;BME280;41397;49.972;18.944;2022-08-27T18:44:43;101491.08;;;27.75;67.29
55550;BME280;41397;49.972;18.944;2022-08-27T18:49:57;101497.36;;;27.70;67.70
55550;BME280;41397;49.972;18.944;2022-08-27T18:55:13;101504.30;;;27.61;67.44
55550;BME280;41397;49.972;18.944;2022-08-27T19:00:28;101501.57;;;27.48;67.61
55550;BME280;41397;49.972;18.944;2022-08-27T19:02:19;101503.73;;;27.39;68.18
55550;BME280;41397;49.972;18.944;2022-08-27T19:05:42;101509.59;;;27.31;68.03
55550;BME280;41397;49.972;18.944;2022-08-27T19:10:56;101507.88;;;27.16;68.25
55550;BME280;41397;49.972;18.944;2022-08-27T19:16:17;101512.19;;;27.06;67.87
55550;BME280;41397;49.972;18.944;2022-08-27T19:21:31;101507.66;;;27.05;68.04
55550;BME280;41397;49.972;18.944;2022-08-27T19:26:48;101513.49;;;27.10;68.18
55550;BME280;41397;49.972;18.944;2022-08-27T19:32:02;101513.91;;;27.13;68.24
55550;BME280;41397;49.972;18.944;2022-08-27T19:32:33;101512.20;;;27.12;68.45
55550;BME280;41397;49.972;18.944;2022-08-27T19:37:25;101521.48;;;27.13;68.82
55550;BME280;41397;49.972;18.944;2022-08-27T19:42:41;101518.68;;;27.13;69.23
55550;BME280;41397;49.972;18.944;2022-08-27T19:47:58;101516.53;;;26.88;70.52
55550;BME280;41397;49.972;18.944;2022-08-27T19:53:12;101525.37;;;26.65;71.74
55550;BME280;41397;49.972;18.944;2022-08-27T19:58:25;101525.15;;;26.53;72.09
55550;BME280;41397;49.972;18.944;2022-08-27T20:02:47;101525.18;;;26.60;72.01
55550;BME280;41397;49.972;18.944;2022-08-27T20:03:39;101530.55;;;26.62;71.64
55550;BME280;41397;49.972;18.944;2022-08-27T20:08:53;101527.47;;;26.37;72.61
55550;BME280;41397;49.972;18.944;2022-08-27T20:14:07;101524.20;;;26.26;72.69
55550;BME280;41397;49.972;18.944;2022-08-27T20:19:22;101528.68;;;26.07;72.66
55550;BME280;41397;49.972;18.944;2022-08-27T20:24:37;101536.84;;;25.96;72.76
55550;BME280;41397;49.972;18.944;2022-08-27T20:29:54;101531.15;;;25.82;73.35
55550;BME280;41397;49.972;18.944;2022-08-27T20:33:01;101533.02;;;25.68;73.86
55550;BME280;41397;49.972;18.944;2022-08-27T20:35:10;101524.59;;;25.62;73.79
55550;BME280;41397;49.972;18.944;2022-08-27T20:40:26;101530.73;;;25.44;74.50
55550;BME280;41397;49.972;18.944;2022-08-27T20:45:43;101520.80;;;25.41;74.40
55550;BME280;41397;49.972;18.944;2022-08-27T20:50:57;101515.01;;;25.43;74.27
55550;BME280;41397;49.972;18.944;2022-08-27T20:56:11;101513.02;;;25.37;74.66
55550;BME280;41397;49.972;18.944;2022-08-27T21:01:25;101506.94;;;25.27;75.00
55550;BME280;41397;49.972;18.944;2022-08-27T21:03:14;101514.67;;;25.24;74.95
55550;BME280;41397;49.972;18.944;2022-08-27T21:06:39;101507.33;;;25.23;74.74
55550;BME280;41397;49.972;18.944;2022-08-27T21:11:55;101509.62;;;25.13;74.50
55550;BME280;41397;49.972;18.944;2022-08-27T21:17:09;101508.51;;;25.08;73.85
55550;BME280;41397;49.972;18.944;2022-08-27T21:25:25;101509.67;;;24.64;73.05
55550;BME280;41397;49.972;18.944;2022-08-27T21:30:39;101502.87;;;24.51;72.30
55550;BME280;41397;49.972;18.944;2022-08-27T21:35:53;101509.69;;;24.27;72.80
55550;BME280;41397;49.972;18.944;2022-08-27T21:41:07;101514.88;;;24.30;72.25
55550;BME280;41397;49.972;18.944;2022-08-27T21:46:21;101512.34;;;24.35;72.04
55550;BME280;41397;49.972;18.944;2022-08-27T21:50:24;101521.40;;;24.16;72.30
55550;BME280;41397;49.972;18.944;2022-08-27T21:51:35;101523.92;;;24.11;72.11
55550;BME280;41397;49.972;18.944;2022-08-27T21:56:49;101518.27;;;24.04;73.04
55550;BME280;41397;49.972;18.944;2022-08-27T22:02:03;101526.55;;;23.98;73.25
55550;BME280;41397;49.972;18.944;2022-08-27T22:07:16;101521.06;;;24.04;73.36
55550;BME280;41397;49.972;18.944;2022-08-27T22:12:30;101519.71;;;24.00;73.65
55550;BME280;41397;49.972;18.944;2022-08-27T22:17:44;101519.06;;;23.98;73.64
55550;BME280;41397;49.972;18.944;2022-08-27T22:20:41;101524.04;;;24.03;73.66
55550;BME280;41397;49.972;18.944;2022-08-27T22:22:58;101518.27;;;24.04;73.56
55550;BME280;41397;49.972;18.944;2022-08-27T22:28:12;101516.88;;;24.15;73.25
55550;BME280;41397;49.972;18.944;2022-08-27T22:33:26;101520.59;;;24.22;72.99
55550;BME280;41397;49.972;18.944;2022-08-27T22:38:40;101515.95;;;24.29;72.90
55550;BME280;41397;49.972;18.944;2022-08-27T22:43:56;101513.89;;;24.38;73.29
55550;BME280;41397;49.972;18.944;2022-08-27T22:49:13;101504.45;;;24.39;73.46
55550;BME280;41397;49.972;18.944;2022-08-27T22:50:55;101508.30;;;24.38;73.59
55550;BME280;41397;49.972;18.944;2022-08-27T22:54:30;101503.56;;;24.38;73.45
55550;BME280;41397;49.972;18.944;2022-08-27T22:59:47;101504.24;;;24.41;73.74
55550;BME280;41397;49.972;18.944;2022-08-27T23:05:05;101497.00;;;24.46;73.41
55550;BME280;41397;49.972;18.944;2022-08-27T23:10:22;101498.36;;;24.50;73.54
55550;BME280;41397;49.972;18.944;2022-08-27T23:15:39;101511.07;;;24.53;73.33
55550;BME280;41397;49.972;18.944;2022-08-27T23:20:55;101498.13;;;24.52;73.77
55550;BME280;41397;49.972;18.944;2022-08-27T23:21:09;101503.05;;;24.50;73.89
55550;BME280;41397;49.972;18.944;2022-08-27T23:26:12;101492.95;;;24.49;74.03
55550;BME280;41397;49.972;18.944;2022-08-27T23:31:38;101488.13;;;24.43;74.29
55550;BME280;41397;49.972;18.944;2022-08-27T23:36:52;101483.80;;;24.40;74.00
55550;BME280;41397;49.972;18.944;2022-08-27T23:42:08;101497.11;;;24.38;73.94
55550;BME280;41397;49.972;18.944;2022-08-27T23:47:22;101497.92;;;24.32;74.18
55550;BME280;41397;49.972;18.944;2022-08-27T23:51:23;101496.79;;;24.26;74.22
55550;BME280;41397;49.972;18.944;2022-08-27T23:52:36;101496.97;;;24.25;74.35
55550;BME280;41397;49.972;18.944;2022-08-27T23:57:50;101502.57;;;24.25;74.84
